sensor_id;sensor_type;location;lat;lon;timestamp;temperature;humidity
23301;DHT22;11819;51.394;12.340;2023-07-20T00:00:36;18.60;99.90
23301;DHT22;11819;51.394;12.340;2023-07-20T00:03:12;18.50;99.90
23301;DHT22;11819;51.394;12.340;2023-07-20T00:05:45;18.40;99.90
23301;DHT22;11819;51.394;12.340;2023-07-20T00:08:10;18.30;99.90
23301;DHT22;11819;51.394;12.340;2023-07-20T00:10:37;18.30;99.90
23301;DHT22;11819;51.394;12.340;2023-07-20T00:13:03;18.30;99.90
23301;DHT22;11819;51.394;12.340;2023-07-20T00:15:29;18.20;99.90
23301;DHT22;11819;51.394;12.340;2023-07-20T00:17:54;18.20;99.90
23301;DHT22;11819;51.394;12.340;2023-07-20T00:20:23;18.20;99.90
23301;DHT22;11819;51.394;12.340;2023-07-20T00:22:49;18.20;99.90
23301;DHT22;11819;51.394;12.340;2023-07-20T00:25:17;18.20;99.90
23301;DHT22;11819;51.394;12.340;2023-07-20T00:27:43;18.20;99.90
23301;DHT22;11819;51.394;12.340;2023-07-20T00:30:09;18.10;99.90
23301;DHT22;11819;51.394;12.340;2023-07-20T00:32:35;18.00;99.90
23301;DHT22;11819;51.394;12.340;2023-07-20T00:35:01;18.00;99.90
23301;DHT22;11819;51.394;12.340;2023-07-20T00:37:28;18.00;99.90
23301;DHT22;11819;51.394;12.340;2023-07-20T00:39:55;18.10;99.90
23301;DHT22;11819;51.394;12.340;2023-07-20T00:42:20;18.10;99.90
23301;DHT22;11819;51.394;12.340;2023-07-20T00:44:46;18.10;99.90
23301;DHT22;11819;51.394;12.340;2023-07-20T00:47:12;18.10;99.90
23301;DHT22;11819;51.394;12.340;2023-07-20T00:49:41;18.10;99.90
23301;DHT22;11819;51.394;12.340;2023-07-20T00:52:07;18.10;99.90
23301;DHT22;11819;51.394;12.340;2023-07-20T00:54:34;18.00;99.90
23301;DHT22;11819;51.394;12.340;2023-07-20T00:57:01;18.00;99.90
23301;DHT22;11819;51.394;12.340;2023-07-20T00:59:27;18.00;99.90
23301;DHT22;11819;51.394;12.340;2023-07-20T01:01:53;18.00;99.90
23301;DHT22;11819;51.394;12.340;2023-07-20T01:04:20;18.00;99.90
23301;DHT22;11819;51.394;12.340;2023-07-20T01:07:14;18.10;99.90
23301;DHT22;11819;51.394;12.340;2023-07-20T01:12:42;18.10;99.90
23301;DHT22;11819;51.394;12.340;2023-07-20T01:15:10;18.20;99.90
23301;DHT22;11819;51.394;12.340;2023-07-20T01:17:37;18.20;99.90
23301;DHT22;11819;51.394;12.340;2023-07-20T01:20:03;18.20;99.90
23301;DHT22;11819;51.394;12.340;2023-07-20T01:25:51;18.30;99.90
23301;DHT22;11819;51.394;12.340;2023-07-20T01:31:28;18.40;99.90
23301;DHT22;11819;51.394;12.340;2023-07-20T01:33:58;18.30;99.90
23301;DHT22;11819;51.394;12.340;2023-07-20T01:36:27;18.30;99.90
23301;DHT22;11819;51.394;12.340;2023-07-20T01:38:54;18.20;99.90
23301;DHT22;11819;51.394;12.340;2023-07-20T01:41:21;18.20;99.90
23301;DHT22;11819;51.394;12.340;2023-07-20T01:43:47;18.20;99.90
23301;DHT22;11819;51.394;12.340;2023-07-20T01:46:12;18.10;99.90
23301;DHT22;11819;51.394;12.340;2023-07-20T01:48:39;18.10;99.90
23301;DHT22;11819;51.394;12.340;2023-07-20T01:51:05;18.10;99.90
23301;DHT22;11819;51.394;12.340;2023-07-20T01:53:32;18.10;99.90
23301;DHT22;11819;51.394;12.340;2023-07-20T01:55:57;18.00;99.90
23301;DHT22;11819;51.394;12.340;2023-07-20T01:58:23;18.00;99.90
23301;DHT22;11819;51.394;12.340;2023-07-20T02:00:50;17.90;99.90
23301;DHT22;11819;51.394;12.340;2023-07-20T02:03:16;17.90;99.90
23301;DHT22;11819;51.394;12.340;2023-07-20T02:05:45;17.80;99.90
23301;DHT22;11819;51.394;12.340;2023-07-20T02:08:10;17.80;99.90
23301;DHT22;11819;51.394;12.340;2023-07-20T02:10:36;17.80;99.90
23301;DHT22;11819;51.394;12.340;2023-07-20T02:13:02;17.70;99.90
23301;DHT22;11819;51.394;12.340;2023-07-20T02:15:27;17.70;99.90
23301;DHT22;11819;51.394;12.340;2023-07-20T02:17:54;17.80;99.90
23301;DHT22;11819;51.394;12.340;2023-07-20T02:20:20;17.80;99.90
23301;DHT22;11819;51.394;12.340;2023-07-20T02:22:46;17.80;99.90
23301;DHT22;11819;51.394;12.340;2023-07-20T02:25:13;17.80;99.90
23301;DHT22;11819;51.394;12.340;2023-07-20T02:27:39;17.80;99.90
23301;DHT22;11819;51.394;12.340;2023-07-20T02:30:05;17.80;99.90
23301;DHT22;11819;51.394;12.340;2023-07-20T02:32:31;17.70;99.90
23301;DHT22;11819;51.394;12.340;2023-07-20T02:34:57;17.70;99.90
23301;DHT22;11819;51.394;12.340;2023-07-20T02:37:25;17.80;99.90
23301;DHT22;11819;51.394;12.340;2023-07-20T02:39:51;17.80;99.90
23301;DHT22;11819;51.394;12.340;2023-07-20T02:42:16;17.80;99.90
23301;DHT22;11819;51.394;12.340;2023-07-20T02:44:43;17.90;99.90
23301;DHT22;11819;51.394;12.340;2023-07-20T02:47:08;17.80;99.90
23301;DHT22;11819;51.394;12.340;2023-07-20T02:49:34;17.90;99.90
23301;DHT22;11819;51.394;12.340;2023-07-20T02:52:01;17.90;99.90
23301;DHT22;11819;51.394;12.340;2023-07-20T02:54:28;18.00;99.90
23301;DHT22;11819;51.394;12.340;2023-07-20T02:56:57;17.90;99.90
23301;DHT22;11819;51.394;12.340;2023-07-20T02:59:22;17.90;99.90
23301;DHT22;11819;51.394;12.340;2023-07-20T03:01:48;17.90;99.90
23301;DHT22;11819;51.394;12.340;2023-07-20T03:04:14;17.80;99.90
23301;DHT22;11819;51.394;12.340;2023-07-20T03:06:41;17.80;99.90
23301;DHT22;11819;51.394;12.340;2023-07-20T03:09:08;17.70;99.90
23301;DHT22;11819;51.394;12.340;2023-07-20T03:11:34;17.70;99.90
23301;DHT22;11819;51.394;12.340;2023-07-20T03:14:00;17.70;99.90
23301;DHT22;11819;51.394;12.340;2023-07-20T03:16:26;17.70;99.90
23301;DHT22;11819;51.394;12.340;2023-07-20T03:18:53;17.60;99.90
23301;DHT22;11819;51.394;12.340;2023-07-20T03:21:19;17.60;99.90
23301;DHT22;11819;51.394;12.340;2023-07-20T03:23:44;17.70;99.90
23301;DHT22;11819;51.394;12.340;2023-07-20T03:26:10;17.70;99.90
23301;DHT22;11819;51.394;12.340;2023-07-20T03:28:37;17.80;99.90
23301;DHT22;11819;51.394;12.340;2023-07-20T03:31:04;17.80;99.90
23301;DHT22;11819;51.394;12.340;2023-07-20T03:33:33;17.80;99.90
23301;DHT22;11819;51.394;12.340;2023-07-20T03:36:01;17.80;99.90
23301;DHT22;11819;51.394;12.340;2023-07-20T03:38:27;17.90;99.90
23301;DHT22;11819;51.394;12.340;2023-07-20T03:40:56;17.90;99.90
23301;DHT22;11819;51.394;12.340;2023-07-20T03:43:23;17.90;99.90
23301;DHT22;11819;51.394;12.340;2023-07-20T03:45:50;17.90;99.90
23301;DHT22;11819;51.394;12.340;2023-07-20T03:48:19;17.80;99.90
23301;DHT22;11819;51.394;12.340;2023-07-20T03:50:45;17.80;99.90
23301;DHT22;11819;51.394;12.340;2023-07-20T03:53:12;17.80;99.90
23301;DHT22;11819;51.394;12.340;2023-07-20T03:55:38;17.70;99.90
23301;DHT22;11819;51.394;12.340;2023-07-20T03:58:06;17.70;99.90
23301;DHT22;11819;51.394;12.340;2023-07-20T04:00:32;17.70;99.90
23301;DHT22;11819;51.394;12.340;2023-07-20T04:02:59;17.70;99.90
23301;DHT22;11819;51.394;12.340;2023-07-20T04:05:25;17.70;99.90
23301;DHT22;11819;51.394;12.340;2023-07-20T04:07:54;17.70;99.90
23301;DHT22;11819;51.394;12.340;2023-07-20T04:10:20;17.80;99.90
23301;DHT22;11819;51.394;12.340;2023-07-20T04:12:45;17.90;99.90
23301;DHT22;11819;51.394;12.340;2023-07-20T04:15:13;17.90;99.90
23301;DHT22;11819;51.394;12.340;2023-07-20T04:17:39;18.00;99.90
23301;DHT22;11819;51.394;12.340;2023-07-20T04:20:06;18.10;99.90
23301;DHT22;11819;51.394;12.340;2023-07-20T04:22:33;18.00;99.90
23301;DHT22;11819;51.394;12.340;2023-07-20T04:25:00;18.10;99.90
23301;DHT22;11819;51.394;12.340;2023-07-20T04:27:26;18.10;99.90
23301;DHT22;11819;51.394;12.340;2023-07-20T04:29:52;18.10;99.90
23301;DHT22;11819;51.394;12.340;2023-07-20T04:32:19;18.10;99.90
23301;DHT22;11819;51.394;12.340;2023-07-20T04:34:45;18.10;99.90
23301;DHT22;11819;51.394;12.340;2023-07-20T04:37:11;18.00;99.90
23301;DHT22;11819;51.394;12.340;2023-07-20T04:39:36;18.00;99.90
23301;DHT22;11819;51.394;12.340;2023-07-20T04:42:08;18.10;99.90
23301;DHT22;11819;51.394;12.340;2023-07-20T04:44:34;18.10;99.90
23301;DHT22;11819;51.394;12.340;2023-07-20T04:47:01;18.10;99.90
23301;DHT22;11819;51.394;12.340;2023-07-20T04:49:29;18.20;99.90
23301;DHT22;11819;51.394;12.340;2023-07-20T04:51:55;18.30;99.90
23301;DHT22;11819;51.394;12.340;2023-07-20T04:54:21;18.30;99.90
23301;DHT22;11819;51.394;12.340;2023-07-20T04:56:47;18.30;99.90
23301;DHT22;11819;51.394;12.340;2023-07-20T04:59:13;18.20;99.90
23301;DHT22;11819;51.394;12.340;2023-07-20T05:01:39;18.20;99.90
23301;DHT22;11819;51.394;12.340;2023-07-20T05:04:05;18.20;99.90
23301;DHT22;11819;51.394;12.340;2023-07-20T05:06:32;18.20;99.90
23301;DHT22;11819;51.394;12.340;2023-07-20T05:08:59;18.00;99.90
23301;DHT22;11819;51.394;12.340;2023-07-20T05:11:26;18.00;99.90
23301;DHT22;11819;51.394;12.340;2023-07-20T05:13:52;17.90;99.90
23301;DHT22;11819;51.394;12.340;2023-07-20T05:16:17;17.80;99.90
23301;DHT22;11819;51.394;12.340;2023-07-20T05:18:45;17.80;99.90
23301;DHT22;11819;51.394;12.340;2023-07-20T05:21:11;17.80;99.90
23301;DHT22;11819;51.394;12.340;2023-07-20T05:23:36;17.80;99.90
23301;DHT22;11819;51.394;12.340;2023-07-20T05:26:02;17.80;99.90
23301;DHT22;11819;51.394;12.340;2023-07-20T05:28:28;17.90;99.90
23301;DHT22;11819;51.394;12.340;2023-07-20T05:30:53;17.90;99.90
23301;DHT22;11819;51.394;12.340;2023-07-20T05:33:20;17.80;99.90
23301;DHT22;11819;51.394;12.340;2023-07-20T05:35:46;17.80;99.90
23301;DHT22;11819;51.394;12.340;2023-07-20T05:38:12;17.80;99.60
23301;DHT22;11819;51.394;12.340;2023-07-20T05:40:39;17.80;99.70
23301;DHT22;11819;51.394;12.340;2023-07-20T05:43:05;17.90;99.60
23301;DHT22;11819;51.394;12.340;2023-07-20T05:45:31;17.90;99.70
23301;DHT22;11819;51.394;12.340;2023-07-20T05:47:57;18.00;99.60
23301;DHT22;11819;51.394;12.340;2023-07-20T05:50:23;18.10;99.40
23301;DHT22;11819;51.394;12.340;2023-07-20T05:52:53;18.10;98.60
23301;DHT22;11819;51.394;12.340;2023-07-20T05:55:19;18.10;98.70
23301;DHT22;11819;51.394;12.340;2023-07-20T05:57:45;18.10;98.80
23301;DHT22;11819;51.394;12.340;2023-07-20T06:00:11;18.10;98.70
23301;DHT22;11819;51.394;12.340;2023-07-20T06:02:38;18.10;98.50
23301;DHT22;11819;51.394;12.340;2023-07-20T06:05:05;18.10;98.70
23301;DHT22;11819;51.394;12.340;2023-07-20T06:07:32;18.20;98.70
23301;DHT22;11819;51.394;12.340;2023-07-20T06:09:58;18.10;97.90
23301;DHT22;11819;51.394;12.340;2023-07-20T06:12:24;18.00;97.90
23301;DHT22;11819;51.394;12.340;2023-07-20T06:14:50;18.00;98.30
23301;DHT22;11819;51.394;12.340;2023-07-20T06:17:16;18.00;97.80
23301;DHT22;11819;51.394;12.340;2023-07-20T06:19:42;18.00;98.00
23301;DHT22;11819;51.394;12.340;2023-07-20T06:22:08;18.00;97.90
23301;DHT22;11819;51.394;12.340;2023-07-20T06:24:33;18.10;98.10
23301;DHT22;11819;51.394;12.340;2023-07-20T06:26:59;18.20;98.20
23301;DHT22;11819;51.394;12.340;2023-07-20T06:29:24;18.30;98.10
23301;DHT22;11819;51.394;12.340;2023-07-20T06:31:50;18.40;97.80
23301;DHT22;11819;51.394;12.340;2023-07-20T06:34:16;18.40;95.50
23301;DHT22;11819;51.394;12.340;2023-07-20T06:36:42;18.40;94.50
23301;DHT22;11819;51.394;12.340;2023-07-20T06:39:08;18.30;94.60
23301;DHT22;11819;51.394;12.340;2023-07-20T06:41:34;18.30;94.50
23301;DHT22;11819;51.394;12.340;2023-07-20T06:43:59;18.30;94.60
23301;DHT22;11819;51.394;12.340;2023-07-20T06:46:28;18.20;94.80
23301;DHT22;11819;51.394;12.340;2023-07-20T06:48:55;18.20;94.50
23301;DHT22;11819;51.394;12.340;2023-07-20T06:51:22;18.20;94.50
23301;DHT22;11819;51.394;12.340;2023-07-20T06:53:48;18.30;94.70
23301;DHT22;11819;51.394;12.340;2023-07-20T06:56:14;18.40;94.80
23301;DHT22;11819;51.394;12.340;2023-07-20T06:58:41;18.40;94.10
23301;DHT22;11819;51.394;12.340;2023-07-20T07:01:08;18.50;93.80
23301;DHT22;11819;51.394;12.340;2023-07-20T07:03:33;18.60;93.60
23301;DHT22;11819;51.394;12.340;2023-07-20T07:06:00;18.70;93.20
23301;DHT22;11819;51.394;12.340;2023-07-20T07:08:25;18.80;93.20
23301;DHT22;11819;51.394;12.340;2023-07-20T07:10:52;18.90;92.70
23301;DHT22;11819;51.394;12.340;2023-07-20T07:13:18;18.90;92.50
23301;DHT22;11819;51.394;12.340;2023-07-20T07:15:44;18.90;92.50
23301;DHT22;11819;51.394;12.340;2023-07-20T07:18:10;19.00;92.20
23301;DHT22;11819;51.394;12.340;2023-07-20T07:20:38;19.00;91.70
23301;DHT22;11819;51.394;12.340;2023-07-20T07:23:03;19.00;92.00
23301;DHT22;11819;51.394;12.340;2023-07-20T07:25:31;19.10;92.10
23301;DHT22;11819;51.394;12.340;2023-07-20T07:27:57;19.20;92.00
23301;DHT22;11819;51.394;12.340;2023-07-20T07:30:23;19.20;92.10
23301;DHT22;11819;51.394;12.340;2023-07-20T07:32:49;19.10;92.10
23301;DHT22;11819;51.394;12.340;2023-07-20T07:35:14;19.20;91.80
23301;DHT22;11819;51.394;12.340;2023-07-20T07:37:40;19.20;92.10
23301;DHT22;11819;51.394;12.340;2023-07-20T07:40:06;19.10;92.00
23301;DHT22;11819;51.394;12.340;2023-07-20T07:42:33;19.10;92.30
23301;DHT22;11819;51.394;12.340;2023-07-20T07:44:59;19.00;92.30
23301;DHT22;11819;51.394;12.340;2023-07-20T07:47:26;18.90;92.50
23301;DHT22;11819;51.394;12.340;2023-07-20T07:49:53;19.00;92.70
23301;DHT22;11819;51.394;12.340;2023-07-20T07:52:19;19.00;92.40
23301;DHT22;11819;51.394;12.340;2023-07-20T07:54:45;19.00;92.30
23301;DHT22;11819;51.394;12.340;2023-07-20T07:57:11;18.90;92.60
23301;DHT22;11819;51.394;12.340;2023-07-20T07:59:39;18.90;92.80
23301;DHT22;11819;51.394;12.340;2023-07-20T08:02:05;18.90;92.70
23301;DHT22;11819;51.394;12.340;2023-07-20T08:04:31;18.90;92.80
23301;DHT22;11819;51.394;12.340;2023-07-20T08:06:58;19.00;92.90
23301;DHT22;11819;51.394;12.340;2023-07-20T08:09:24;19.00;92.20
23301;DHT22;11819;51.394;12.340;2023-07-20T08:11:50;19.10;92.60
23301;DHT22;11819;51.394;12.340;2023-07-20T08:14:17;19.20;92.60
23301;DHT22;11819;51.394;12.340;2023-07-20T08:16:42;19.30;92.30
23301;DHT22;11819;51.394;12.340;2023-07-20T08:19:08;19.40;92.40
23301;DHT22;11819;51.394;12.340;2023-07-20T08:21:34;19.60;91.80
23301;DHT22;11819;51.394;12.340;2023-07-20T08:24:01;19.70;91.80
23301;DHT22;11819;51.394;12.340;2023-07-20T08:26:27;19.80;91.90
23301;DHT22;11819;51.394;12.340;2023-07-20T08:28:53;19.90;91.50
23301;DHT22;11819;51.394;12.340;2023-07-20T08:31:19;19.90;90.80
23301;DHT22;11819;51.394;12.340;2023-07-20T08:33:44;19.90;89.20
23301;DHT22;11819;51.394;12.340;2023-07-20T08:36:10;19.90;88.90
23301;DHT22;11819;51.394;12.340;2023-07-20T08:38:35;19.80;88.50
23301;DHT22;11819;51.394;12.340;2023-07-20T08:41:01;19.70;89.00
23301;DHT22;11819;51.394;12.340;2023-07-20T08:43:27;19.70;89.00
23301;DHT22;11819;51.394;12.340;2023-07-20T08:45:54;19.70;89.10
23301;DHT22;11819;51.394;12.340;2023-07-20T08:48:24;19.70;88.50
23301;DHT22;11819;51.394;12.340;2023-07-20T08:50:52;19.80;88.00
23301;DHT22;11819;51.394;12.340;2023-07-20T08:53:20;19.80;87.30
23301;DHT22;11819;51.394;12.340;2023-07-20T08:55:50;19.90;86.70
23301;DHT22;11819;51.394;12.340;2023-07-20T08:58:17;19.90;87.20
23301;DHT22;11819;51.394;12.340;2023-07-20T09:00:43;20.10;87.20
23301;DHT22;11819;51.394;12.340;2023-07-20T09:03:10;20.20;86.40
23301;DHT22;11819;51.394;12.340;2023-07-20T09:05:36;20.20;86.30
23301;DHT22;11819;51.394;12.340;2023-07-20T09:08:02;20.20;84.40
23301;DHT22;11819;51.394;12.340;2023-07-20T09:10:31;20.30;84.60
23301;DHT22;11819;51.394;12.340;2023-07-20T09:12:57;20.20;84.50
23301;DHT22;11819;51.394;12.340;2023-07-20T09:15:23;20.20;84.70
23301;DHT22;11819;51.394;12.340;2023-07-20T09:17:51;20.20;84.90
23301;DHT22;11819;51.394;12.340;2023-07-20T09:20:18;20.20;85.10
23301;DHT22;11819;51.394;12.340;2023-07-20T09:22:45;20.20;85.10
23301;DHT22;11819;51.394;12.340;2023-07-20T09:25:24;20.20;84.90
23301;DHT22;11819;51.394;12.340;2023-07-20T09:27:52;20.30;84.90
23301;DHT22;11819;51.394;12.340;2023-07-20T09:30:17;20.20;84.30
23301;DHT22;11819;51.394;12.340;2023-07-20T09:32:48;20.20;85.10
23301;DHT22;11819;51.394;12.340;2023-07-20T09:35:19;20.20;86.30
23301;DHT22;11819;51.394;12.340;2023-07-20T09:37:51;20.10;87.40
23301;DHT22;11819;51.394;12.340;2023-07-20T09:40:18;19.90;90.00
23301;DHT22;11819;51.394;12.340;2023-07-20T09:42:45;19.80;91.20
23301;DHT22;11819;51.394;12.340;2023-07-20T09:45:11;19.60;92.80
23301;DHT22;11819;51.394;12.340;2023-07-20T09:47:38;19.40;93.70
23301;DHT22;11819;51.394;12.340;2023-07-20T09:50:05;19.20;94.80
23301;DHT22;11819;51.394;12.340;2023-07-20T09:52:38;19.00;95.30
23301;DHT22;11819;51.394;12.340;2023-07-20T09:55:07;18.90;96.00
23301;DHT22;11819;51.394;12.340;2023-07-20T09:57:33;18.90;96.80
23301;DHT22;11819;51.394;12.340;2023-07-20T10:00:00;18.90;97.20
23301;DHT22;11819;51.394;12.340;2023-07-20T10:02:32;18.90;97.70
23301;DHT22;11819;51.394;12.340;2023-07-20T10:05:01;18.90;98.10
23301;DHT22;11819;51.394;12.340;2023-07-20T10:07:27;19.00;98.20
23301;DHT22;11819;51.394;12.340;2023-07-20T10:09:56;19.00;97.90
23301;DHT22;11819;51.394;12.340;2023-07-20T10:12:25;18.90;97.20
23301;DHT22;11819;51.394;12.340;2023-07-20T10:15:03;18.90;97.70
23301;DHT22;11819;51.394;12.340;2023-07-20T10:17:32;18.80;97.80
23301;DHT22;11819;51.394;12.340;2023-07-20T10:20:00;18.80;97.40
23301;DHT22;11819;51.394;12.340;2023-07-20T10:22:33;18.70;97.00
23301;DHT22;11819;51.394;12.340;2023-07-20T10:25:00;18.50;98.20
23301;DHT22;11819;51.394;12.340;2023-07-20T10:27:27;18.50;99.20
23301;DHT22;11819;51.394;12.340;2023-07-20T10:29:56;18.50;99.10
23301;DHT22;11819;51.394;12.340;2023-07-20T10:32:24;18.50;98.80
23301;DHT22;11819;51.394;12.340;2023-07-20T10:34:51;18.60;99.00
23301;DHT22;11819;51.394;12.340;2023-07-20T10:37:50;18.60;99.10
23301;DHT22;11819;51.394;12.340;2023-07-20T10:43:01;18.90;98.90
23301;DHT22;11819;51.394;12.340;2023-07-20T10:48:05;18.90;98.20
23301;DHT22;11819;51.394;12.340;2023-07-20T10:50:36;18.90;98.30
23301;DHT22;11819;51.394;12.340;2023-07-20T10:53:13;19.00;97.70
23301;DHT22;11819;51.394;12.340;2023-07-20T10:55:40;19.00;97.10
23301;DHT22;11819;51.394;12.340;2023-07-20T10:58:12;19.10;97.50
23301;DHT22;11819;51.394;12.340;2023-07-20T11:01:02;19.20;97.40
23301;DHT22;11819;51.394;12.340;2023-07-20T11:03:33;19.30;97.30
23301;DHT22;11819;51.394;12.340;2023-07-20T11:05:59;19.30;96.80
23301;DHT22;11819;51.394;12.340;2023-07-20T11:08:46;19.40;97.10
23301;DHT22;11819;51.394;12.340;2023-07-20T11:11:26;19.50;97.30
23301;DHT22;11819;51.394;12.340;2023-07-20T11:14:01;19.70;96.60
23301;DHT22;11819;51.394;12.340;2023-07-20T11:19:04;19.80;95.70
23301;DHT22;11819;51.394;12.340;2023-07-20T11:21:38;19.80;95.60
23301;DHT22;11819;51.394;12.340;2023-07-20T11:24:07;19.70;95.00
23301;DHT22;11819;51.394;12.340;2023-07-20T11:27:02;19.50;95.60
23301;DHT22;11819;51.394;12.340;2023-07-20T11:29:27;19.50;95.80
23301;DHT22;11819;51.394;12.340;2023-07-20T11:31:54;19.40;95.40
23301;DHT22;11819;51.394;12.340;2023-07-20T11:34:21;19.40;95.00
23301;DHT22;11819;51.394;12.340;2023-07-20T11:36:48;19.40;95.10
23301;DHT22;11819;51.394;12.340;2023-07-20T11:39:16;19.50;95.40
23301;DHT22;11819;51.394;12.340;2023-07-20T11:41:53;19.60;94.30
23301;DHT22;11819;51.394;12.340;2023-07-20T11:44:21;19.60;94.10
23301;DHT22;11819;51.394;12.340;2023-07-20T11:47:09;19.70;94.00
23301;DHT22;11819;51.394;12.340;2023-07-20T11:49:37;20.10;94.30
23301;DHT22;11819;51.394;12.340;2023-07-20T11:52:07;20.30;92.40
23301;DHT22;11819;51.394;12.340;2023-07-20T11:54:35;20.50;92.70
23301;DHT22;11819;51.394;12.340;2023-07-20T11:57:01;20.60;92.60
23301;DHT22;11819;51.394;12.340;2023-07-20T11:59:27;20.60;92.00
23301;DHT22;11819;51.394;12.340;2023-07-20T12:01:53;20.60;91.90
23301;DHT22;11819;51.394;12.340;2023-07-20T12:04:22;20.50;91.60
23301;DHT22;11819;51.394;12.340;2023-07-20T12:06:48;20.30;91.60
23301;DHT22;11819;51.394;12.340;2023-07-20T12:09:16;20.20;91.80
23301;DHT22;11819;51.394;12.340;2023-07-20T12:11:43;20.00;92.30
23301;DHT22;11819;51.394;12.340;2023-07-20T12:14:10;19.80;92.30
23301;DHT22;11819;51.394;12.340;2023-07-20T12:16:36;19.80;92.40
23301;DHT22;11819;51.394;12.340;2023-07-20T12:19:12;19.80;93.00
23301;DHT22;11819;51.394;12.340;2023-07-20T12:21:40;19.90;92.50
23301;DHT22;11819;51.394;12.340;2023-07-20T12:24:10;19.90;91.40
23301;DHT22;11819;51.394;12.340;2023-07-20T12:26:36;19.90;91.10
23301;DHT22;11819;51.394;12.340;2023-07-20T12:29:02;19.90;90.70
23301;DHT22;11819;51.394;12.340;2023-07-20T12:31:33;19.90;90.70
23301;DHT22;11819;51.394;12.340;2023-07-20T12:33:59;20.00;90.70
23301;DHT22;11819;51.394;12.340;2023-07-20T12:36:25;20.10;90.80
23301;DHT22;11819;51.394;12.340;2023-07-20T12:38:51;20.30;89.70
23301;DHT22;11819;51.394;12.340;2023-07-20T12:41:17;20.50;87.50
23301;DHT22;11819;51.394;12.340;2023-07-20T12:43:44;20.50;87.20
23301;DHT22;11819;51.394;12.340;2023-07-20T12:46:11;20.50;86.10
23301;DHT22;11819;51.394;12.340;2023-07-20T12:48:37;20.60;85.40
23301;DHT22;11819;51.394;12.340;2023-07-20T12:51:05;20.70;84.50
23301;DHT22;11819;51.394;12.340;2023-07-20T12:53:32;20.90;84.10
23301;DHT22;11819;51.394;12.340;2023-07-20T12:56:01;21.00;83.70
23301;DHT22;11819;51.394;12.340;2023-07-20T12:58:27;21.10;81.90
23301;DHT22;11819;51.394;12.340;2023-07-20T13:00:53;21.00;81.90
23301;DHT22;11819;51.394;12.340;2023-07-20T13:03:19;20.90;83.00
23301;DHT22;11819;51.394;12.340;2023-07-20T13:05:46;20.80;83.60
23301;DHT22;11819;51.394;12.340;2023-07-20T13:08:13;21.00;85.90
23301;DHT22;11819;51.394;12.340;2023-07-20T13:10:39;21.40;84.50
23301;DHT22;11819;51.394;12.340;2023-07-20T13:13:05;21.70;83.80
23301;DHT22;11819;51.394;12.340;2023-07-20T13:15:32;22.00;83.60
23301;DHT22;11819;51.394;12.340;2023-07-20T13:17:59;22.00;80.80
23301;DHT22;11819;51.394;12.340;2023-07-20T13:20:25;21.90;78.50
23301;DHT22;11819;51.394;12.340;2023-07-20T13:22:51;21.70;78.40
23301;DHT22;11819;51.394;12.340;2023-07-20T13:25:18;21.60;79.40
23301;DHT22;11819;51.394;12.340;2023-07-20T13:27:44;21.50;79.10
23301;DHT22;11819;51.394;12.340;2023-07-20T13:30:10;21.40;79.80
23301;DHT22;11819;51.394;12.340;2023-07-20T13:32:42;21.40;80.80
23301;DHT22;11819;51.394;12.340;2023-07-20T13:35:09;21.40;79.60
23301;DHT22;11819;51.394;12.340;2023-07-20T13:37:36;21.30;79.60
23301;DHT22;11819;51.394;12.340;2023-07-20T13:40:02;21.20;80.00
23301;DHT22;11819;51.394;12.340;2023-07-20T13:42:31;21.40;79.00
23301;DHT22;11819;51.394;12.340;2023-07-20T13:44:57;21.50;77.80
23301;DHT22;11819;51.394;12.340;2023-07-20T13:47:22;21.60;76.20
23301;DHT22;11819;51.394;12.340;2023-07-20T13:49:48;21.70;75.80
23301;DHT22;11819;51.394;12.340;2023-07-20T13:52:14;21.90;76.10
23301;DHT22;11819;51.394;12.340;2023-07-20T13:54:41;22.10;75.10
23301;DHT22;11819;51.394;12.340;2023-07-20T13:57:06;22.10;72.30
23301;DHT22;11819;51.394;12.340;2023-07-20T13:59:32;22.00;71.90
23301;DHT22;11819;51.394;12.340;2023-07-20T14:01:58;21.80;73.50
23301;DHT22;11819;51.394;12.340;2023-07-20T14:04:24;21.70;73.50
23301;DHT22;11819;51.394;12.340;2023-07-20T14:06:51;21.60;72.00
23301;DHT22;11819;51.394;12.340;2023-07-20T14:09:16;21.60;72.50
23301;DHT22;11819;51.394;12.340;2023-07-20T14:11:42;21.60;72.90
23301;DHT22;11819;51.394;12.340;2023-07-20T14:14:08;22.00;73.10
23301;DHT22;11819;51.394;12.340;2023-07-20T14:16:33;22.50;71.50
23301;DHT22;11819;51.394;12.340;2023-07-20T14:18:59;23.20;67.00
23301;DHT22;11819;51.394;12.340;2023-07-20T14:21:25;23.80;63.20
23301;DHT22;11819;51.394;12.340;2023-07-20T14:23:51;24.30;62.20
23301;DHT22;11819;51.394;12.340;2023-07-20T14:26:18;24.70;59.60
23301;DHT22;11819;51.394;12.340;2023-07-20T14:28:44;25.10;59.10
23301;DHT22;11819;51.394;12.340;2023-07-20T14:31:10;25.30;58.00
23301;DHT22;11819;51.394;12.340;2023-07-20T14:33:36;25.20;57.80
23301;DHT22;11819;51.394;12.340;2023-07-20T14:36:02;25.00;57.80
23301;DHT22;11819;51.394;12.340;2023-07-20T14:38:30;25.00;58.80
23301;DHT22;11819;51.394;12.340;2023-07-20T14:40:57;25.20;58.50
23301;DHT22;11819;51.394;12.340;2023-07-20T14:43:22;25.30;57.30
23301;DHT22;11819;51.394;12.340;2023-07-20T14:45:48;25.40;57.40
23301;DHT22;11819;51.394;12.340;2023-07-20T14:48:14;25.70;57.00
23301;DHT22;11819;51.394;12.340;2023-07-20T14:50:40;26.10;56.60
23301;DHT22;11819;51.394;12.340;2023-07-20T14:53:06;26.40;54.70
23301;DHT22;11819;51.394;12.340;2023-07-20T14:55:33;26.50;53.90
23301;DHT22;11819;51.394;12.340;2023-07-20T14:57:59;26.30;54.60
23301;DHT22;11819;51.394;12.340;2023-07-20T15:00:24;25.90;54.00
23301;DHT22;11819;51.394;12.340;2023-07-20T15:02:51;25.40;55.20
23301;DHT22;11819;51.394;12.340;2023-07-20T15:05:22;25.00;54.10
23301;DHT22;11819;51.394;12.340;2023-07-20T15:07:48;24.70;54.40
23301;DHT22;11819;51.394;12.340;2023-07-20T15:10:15;24.40;55.00
23301;DHT22;11819;51.394;12.340;2023-07-20T15:12:42;24.20;56.20
23301;DHT22;11819;51.394;12.340;2023-07-20T15:15:09;24.30;57.00
23301;DHT22;11819;51.394;12.340;2023-07-20T15:17:37;24.60;56.70
23301;DHT22;11819;51.394;12.340;2023-07-20T15:20:04;25.20;55.10
23301;DHT22;11819;51.394;12.340;2023-07-20T15:22:31;25.60;53.60
23301;DHT22;11819;51.394;12.340;2023-07-20T15:24:57;26.00;49.80
23301;DHT22;11819;51.394;12.340;2023-07-20T15:27:23;26.40;49.80
23301;DHT22;11819;51.394;12.340;2023-07-20T15:29:49;26.60;48.70
23301;DHT22;11819;51.394;12.340;2023-07-20T15:32:17;26.80;48.00